sensor_id;sensor_type;location;lat;lon;timestamp;pressure;altitude;pressure_sealevel;temperature;humidity
5966;BME280;3009;43.224;27.976;2023-02-28T00:01:13;101378.69;;;5.55;100.00
5966;BME280;3009;43.224;27.976;2023-02-28T00:03:42;101374.75;;;5.58;100.00
5966;BME280;3009;43.224;27.976;2023-02-28T00:06:10;101383.78;;;5.57;100.00
5966;BME280;3009;43.224;27.976;2023-02-28T00:08:39;101393.06;;;5.54;100.00
5966;BME280;3009;43.224;27.976;2023-02-28T00:11:09;101402.28;;;5.46;100.00
5966;BME280;3009;43.224;27.976;2023-02-28T00:13:40;101400.31;;;5.59;100.00
5966;BME280;3009;43.224;27.976;2023-02-28T00:16:10;101392.50;;;5.52;100.00
5966;BME280;3009;43.224;27.976;2023-02-28T00:18:41;101400.09;;;5.43;100.00
5966;BME280;3009;43.224;27.976;2023-02-28T00:21:09;101407.00;;;5.39;100.00
5966;BME280;3009;43.224;27.976;2023-02-28T00:23:37;101403.09;;;5.47;100.00
5966;BME280;3009;43.224;27.976;2023-02-28T00:26:06;101390.41;;;5.54;100.00
5966;BME280;3009;43.224;27.976;2023-02-28T00:28:34;101381.06;;;5.52;100.00
5966;BME280;3009;43.224;27.976;2023-02-28T00:31:02;101389.22;;;5.45;100.00
5966;BME280;3009;43.224;27.976;2023-02-28T00:33:31;101392.63;;;5.40;100.00
5966;BME280;3009;43.224;27.976;2023-02-28T00:36:06;101385.09;;;5.32;100.00
5966;BME280;3009;43.224;27.976;2023-02-28T00:38:34;101374.47;;;5.32;100.00
5966;BME280;3009;43.224;27.976;2023-02-28T00:41:02;101382.44;;;5.54;100.00
5966;BME280;3009;43.224;27.976;2023-02-28T00:43:32;101378.25;;;5.36;100.00
5966;BME280;3009;43.224;27.976;2023-02-28T00:46:01;101383.66;;;5.46;100.00
5966;BME280;3009;43.224;27.976;2023-02-28T00:48:29;101369.44;;;5.36;100.00
5966;BME280;3009;43.224;27.976;2023-02-28T00:50:57;101377.75;;;5.39;100.00
5966;BME280;3009;43.224;27.976;2023-02-28T00:53:27;101379.56;;;5.39;100.00
5966;BME280;3009;43.224;27.976;2023-02-28T00:55:55;101389.78;;;5.47;100.00
5966;BME280;3009;43.224;27.976;2023-02-28T00:58:24;101404.38;;;5.44;100.00
5966;BME280;3009;43.224;27.976;2023-02-28T01:00:53;101387.81;;;5.37;100.00
5966;BME280;3009;43.224;27.976;2023-02-28T01:03:21;101374.88;;;5.46;100.00
5966;BME280;3009;43.224;27.976;2023-02-28T01:05:50;101381.50;;;5.43;100.00
5966;BME280;3009;43.224;27.976;2023-02-28T01:08:19;101383.91;;;5.45;100.00
5966;BME280;3009;43.224;27.976;2023-02-28T01:10:49;101382.00;;;5.40;100.00
5966;BME280;3009;43.224;27.976;2023-02-28T01:13:17;101403.25;;;5.40;100.00
5966;BME280;3009;43.224;27.976;2023-02-28T01:15:50;101401.53;;;5.29;100.00
5966;BME280;3009;43.224;27.976;2023-02-28T01:18:19;101420.91;;;5.24;100.00
5966;BME280;3009;43.224;27.976;2023-02-28T01:20:48;101422.88;;;5.34;100.00
5966;BME280;3009;43.224;27.976;2023-02-28T01:23:18;101437.47;;;5.31;100.00
5966;BME280;3009;43.224;27.976;2023-02-28T01:25:50;101431.34;;;5.31;100.00
5966;BME280;3009;43.224;27.976;2023-02-28T01:28:18;101425.72;;;5.27;100.00
5966;BME280;3009;43.224;27.976;2023-02-28T01:30:50;101428.53;;;5.21;100.00
5966;BME280;3009;43.224;27.976;2023-02-28T01:33:19;101433.06;;;5.20;100.00
5966;BME280;3009;43.224;27.976;2023-02-28T01:35:47;101427.94;;;5.13;100.00
5966;BME280;3009;43.224;27.976;2023-02-28T01:38:15;101427.00;;;5.25;100.00
5966;BME280;3009;43.224;27.976;2023-02-28T01:40:50;101430.34;;;5.37;100.00
5966;BME280;3009;43.224;27.976;2023-02-28T01:43:21;101423.81;;;5.23;100.00
5966;BME280;3009;43.224;27.976;2023-02-28T01:45:51;101415.38;;;5.31;100.00
5966;BME280;3009;43.224;27.976;2023-02-28T01:48:21;101419.22;;;5.18;100.00
5966;BME280;3009;43.224;27.976;2023-02-28T01:50:54;101414.47;;;5.20;100.00
5966;BME280;3009;43.224;27.976;2023-02-28T01:53:34;101411.50;;;5.00;100.00
5966;BME280;3009;43.224;27.976;2023-02-28T01:56:07;101422.38;;;4.98;100.00
5966;BME280;3009;43.224;27.976;2023-02-28T01:58:37;101430.25;;;5.10;100.00
5966;BME280;3009;43.224;27.976;2023-02-28T02:01:05;101421.44;;;5.04;100.00
5966;BME280;3009;43.224;27.976;2023-02-28T02:03:35;101424.50;;;4.96;100.00
5966;BME280;3009;43.224;27.976;2023-02-28T02:06:04;101446.19;;;4.88;100.00
5966;BME280;3009;43.224;27.976;2023-02-28T02:08:32;101439.50;;;4.85;100.00
5966;BME280;3009;43.224;27.976;2023-02-28T02:11:01;101431.25;;;5.04;100.00
5966;BME280;3009;43.224;27.976;2023-02-28T02:13:42;101419.25;;;5.01;100.00
5966;BME280;3009;43.224;27.976;2023-02-28T02:16:23;101408.16;;;4.87;100.00
5966;BME280;3009;43.224;27.976;2023-02-28T02:19:01;101422.03;;;4.89;100.00
5966;BME280;3009;43.224;27.976;2023-02-28T02:21:50;101438.56;;;5.13;100.00
5966;BME280;3009;43.224;27.976;2023-02-28T02:24:40;101458.28;;;5.18;100.00
5966;BME280;3009;43.224;27.976;2023-02-28T02:27:20;101450.50;;;5.11;100.00
5966;BME280;3009;43.224;27.976;2023-02-28T02:30:14;101445.94;;;4.89;100.00
5966;BME280;3009;43.224;27.976;2023-02-28T02:33:03;101430.00;;;4.89;100.00
5966;BME280;3009;43.224;27.976;2023-02-28T02:35:40;101428.06;;;4.85;100.00
5966;BME280;3009;43.224;27.976;2023-02-28T02:38:18;101411.06;;;4.86;100.00
5966;BME280;3009;43.224;27.976;2023-02-28T02:40:54;101438.22;;;4.88;100.00
5966;BME280;3009;43.224;27.976;2023-02-28T02:43:28;101450.75;;;4.75;100.00
5966;BME280;3009;43.224;27.976;2023-02-28T02:46:02;101429.38;;;4.65;100.00
5966;BME280;3009;43.224;27.976;2023-02-28T02:48:34;101441.28;;;4.63;100.00
5966;BME280;3009;43.224;27.976;2023-02-28T02:51:10;101440.47;;;4.62;100.00
5966;BME280;3009;43.224;27.976;2023-02-28T02:53:45;101440.94;;;4.76;100.00
5966;BME280;3009;43.224;27.976;2023-02-28T02:56:18;101444.00;;;4.85;100.00
5966;BME280;3009;43.224;27.976;2023-02-28T02:58:49;101457.13;;;4.74;100.00
5966;BME280;3009;43.224;27.976;2023-02-28T03:01:20;101455.75;;;4.89;100.00
5966;BME280;3009;43.224;27.976;2023-02-28T03:03:56;101443.03;;;4.91;100.00
5966;BME280;3009;43.224;27.976;2023-02-28T03:06:27;101431.53;;;4.68;100.00
5966;BME280;3009;43.224;27.976;2023-02-28T03:08:55;101449.97;;;4.75;100.00
5966;BME280;3009;43.224;27.976;2023-02-28T03:11:23;101440.94;;;4.76;100.00
5966;BME280;3009;43.224;27.976;2023-02-28T03:13:58;101453.41;;;4.58;100.00
5966;BME280;3009;43.224;27.976;2023-02-28T03:16:35;101451.41;;;4.49;100.00
5966;BME280;3009;43.224;27.976;2023-02-28T03:19:20;101471.22;;;4.58;100.00
5966;BME280;3009;43.224;27.976;2023-02-28T03:22:03;101493.38;;;4.64;100.00
5966;BME280;3009;43.224;27.976;2023-02-28T03:24:41;101504.78;;;4.64;100.00
5966;BME280;3009;43.224;27.976;2023-02-28T03:27:20;101483.13;;;4.72;100.00
5966;BME280;3009;43.224;27.976;2023-02-28T03:29:56;101479.84;;;4.82;100.00
5966;BME280;3009;43.224;27.976;2023-02-28T03:32:31;101460.59;;;4.75;100.00
5966;BME280;3009;43.224;27.976;2023-02-28T03:35:06;101451.72;;;4.52;100.00
5966;BME280;3009;43.224;27.976;2023-02-28T03:37:40;101458.97;;;4.57;100.00
5966;BME280;3009;43.224;27.976;2023-02-28T03:40:12;101449.25;;;4.46;100.00
5966;BME280;3009;43.224;27.976;2023-02-28T03:42:44;101466.50;;;4.31;100.00
5966;BME280;3009;43.224;27.976;2023-02-28T03:45:17;101461.06;;;4.38;100.00
5966;BME280;3009;43.224;27.976;2023-02-28T03:47:49;101467.88;;;4.34;100.00
5966;BME280;3009;43.224;27.976;2023-02-28T03:50:22;101478.75;;;4.32;100.00
5966;BME280;3009;43.224;27.976;2023-02-28T03:52:57;101476.66;;;4.34;100.00
5966;BME280;3009;43.224;27.976;2023-02-28T03:55:32;101482.75;;;4.35;100.00
5966;BME280;3009;43.224;27.976;2023-02-28T03:58:05;101488.66;;;4.37;100.00
5966;BME280;3009;43.224;27.976;2023-02-28T04:00:39;101501.75;;;4.43;100.00
5966;BME280;3009;43.224;27.976;2023-02-28T04:03:08;101504.66;;;4.42;100.00
5966;BME280;3009;43.224;27.976;2023-02-28T04:05:47;101502.06;;;4.30;100.00
5966;BME280;3009;43.224;27.976;2023-02-28T04:08:19;101489.56;;;4.42;100.00
5966;BME280;3009;43.224;27.976;2023-02-28T04:10:51;101479.06;;;4.53;100.00
5966;BME280;3009;43.224;27.976;2023-02-28T04:13:22;101474.56;;;4.36;100.00
5966;BME280;3009;43.224;27.976;2023-02-28T04:15:50;101468.44;;;4.36;100.00
5966;BME280;3009;43.224;27.976;2023-02-28T04:18:18;101467.78;;;4.29;100.00
5966;BME280;3009;43.224;27.976;2023-02-28T04:20:46;101463.97;;;4.36;100.00
5966;BME280;3009;43.224;27.976;2023-02-28T04:23:14;101480.53;;;4.43;100.00
5966;BME280;3009;43.224;27.976;2023-02-28T04:25:43;101486.81;;;4.54;100.00
5966;BME280;3009;43.224;27.976;2023-02-28T04:28:12;101471.69;;;4.55;100.00
5966;BME280;3009;43.224;27.976;2023-02-28T04:30:40;101464.50;;;4.38;100.00
5966;BME280;3009;43.224;27.976;2023-02-28T04:33:08;101457.81;;;4.36;100.00
5966;BME280;3009;43.224;27.976;2023-02-28T04:35:36;101467.66;;;4.35;100.00
5966;BME280;3009;43.224;27.976;2023-02-28T04:38:04;101479.78;;;4.31;100.00
5966;BME280;3009;43.224;27.976;2023-02-28T04:40:32;101463.97;;;4.53;100.00
5966;BME280;3009;43.224;27.976;2023-02-28T04:43:02;101473.78;;;4.53;100.00
5966;BME280;3009;43.224;27.976;2023-02-28T04:45:30;101465.47;;;4.32;100.00
5966;BME280;3009;43.224;27.976;2023-02-28T04:48:00;101440.50;;;4.33;100.00
5966;BME280;3009;43.224;27.976;2023-02-28T04:50:28;101461.84;;;4.38;100.00
5966;BME280;3009;43.224;27.976;2023-02-28T04:52:57;101457.03;;;4.35;100.00
5966;BME280;3009;43.224;27.976;2023-02-28T04:55:25;101452.84;;;4.39;100.00
5966;BME280;3009;43.224;27.976;2023-02-28T04:57:53;101453.66;;;4.40;100.00
5966;BME280;3009;43.224;27.976;2023-02-28T05:00:23;101453.59;;;4.52;100.00
5966;BME280;3009;43.224;27.976;2023-02-28T05:02:51;101465.00;;;4.52;100.00
5966;BME280;3009;43.224;27.976;2023-02-28T05:05:19;101468.47;;;4.53;100.00
5966;BME280;3009;43.224;27.976;2023-02-28T05:07:48;101465.53;;;4.37;100.00
5966;BME280;3009;43.224;27.976;2023-02-28T05:10:18;101489.72;;;4.53;100.00
5966;BME280;3009;43.224;27.976;2023-02-28T05:12:56;101482.81;;;4.52;100.00
5966;BME280;3009;43.224;27.976;2023-02-28T05:15:25;101485.19;;;4.36;100.00
5966;BME280;3009;43.224;27.976;2023-02-28T05:17:53;101473.84;;;4.41;100.00
5966;BME280;3009;43.224;27.976;2023-02-28T05:20:21;101463.56;;;4.44;100.00
5966;BME280;3009;43.224;27.976;2023-02-28T05:22:50;101466.63;;;4.53;100.00
5966;BME280;3009;43.224;27.976;2023-02-28T05:25:21;101488.84;;;4.47;100.00
5966;BME280;3009;43.224;27.976;2023-02-28T05:27:49;101497.75;;;4.41;100.00
5966;BME280;3009;43.224;27.976;2023-02-28T05:30:17;101508.63;;;4.39;100.00
5966;BME280;3009;43.224;27.976;2023-02-28T05:32:50;101495.00;;;4.36;100.00
5966;BME280;3009;43.224;27.976;2023-02-28T05:35:18;101489.38;;;4.32;100.00
5966;BME280;3009;43.224;27.976;2023-02-28T05:37:47;101496.03;;;4.35;100.00
5966;BME280;3009;43.224;27.976;2023-02-28T05:40:15;101502.06;;;4.30;100.00
5966;BME280;3009;43.224;27.976;2023-02-28T05:42:43;101502.84;;;4.42;100.00
5966;BME280;3009;43.224;27.976;2023-02-28T05:45:12;101520.28;;;4.38;100.00
5966;BME280;3009;43.224;27.976;2023-02-28T05:47:41;101542.44;;;4.44;100.00
5966;BME280;3009;43.224;27.976;2023-02-28T05:50:11;101558.44;;;4.49;100.00
5966;BME280;3009;43.224;27.976;2023-02-28T05:52:39;101579.41;;;4.63;100.00
5966;BME280;3009;43.224;27.976;2023-02-28T05:55:08;101606.56;;;4.53;100.00
5966;BME280;3009;43.224;27.976;2023-02-28T05:57:36;101602.28;;;4.64;100.00
5966;BME280;3009;43.224;27.976;2023-02-28T06:00:06;101601.94;;;4.60;100.00
5966;BME280;3009;43.224;27.976;2023-02-28T06:02:34;101596.19;;;4.51;100.00
5966;BME280;3009;43.224;27.976;2023-02-28T06:05:03;101566.22;;;4.39;100.00
5966;BME280;3009;43.224;27.976;2023-02-28T06:07:32;101570.81;;;4.43;100.00
5966;BME280;3009;43.224;27.976;2023-02-28T06:10:00;101571.22;;;4.23;100.00
5966;BME280;3009;43.224;27.976;2023-02-28T06:12:28;101555.59;;;3.98;100.00
5966;BME280;3009;43.224;27.976;2023-02-28T06:14:57;101557.38;;;3.93;100.00
5966;BME280;3009;43.224;27.976;2023-02-28T06:17:25;101578.13;;;3.84;100.00
5966;BME280;3009;43.224;27.976;2023-02-28T06:19:53;101581.03;;;3.70;100.00
5966;BME280;3009;43.224;27.976;2023-02-28T06:22:21;101581.94;;;3.76;100.00
5966;BME280;3009;43.224;27.976;2023-02-28T06:24:51;101591.31;;;3.67;100.00
5966;BME280;3009;43.224;27.976;2023-02-28T06:27:19;101595.91;;;3.71;100.00
5966;BME280;3009;43.224;27.976;2023-02-28T06:29:48;101590.94;;;3.87;100.00
5966;BME280;3009;43.224;27.976;2023-02-28T06:32:17;101584.25;;;3.84;100.00
5966;BME280;3009;43.224;27.976;2023-02-28T06:34:45;101599.13;;;3.73;100.00
5966;BME280;3009;43.224;27.976;2023-02-28T06:37:13;101593.13;;;3.66;100.00
5966;BME280;3009;43.224;27.976;2023-02-28T06:39:42;101596.81;;;3.65;100.00
5966;BME280;3009;43.224;27.976;2023-02-28T06:42:11;101601.66;;;3.80;100.00
5966;BME280;3009;43.224;27.976;2023-02-28T06:44:39;101604.06;;;3.82;100.00
5966;BME280;3009;43.224;27.976;2023-02-28T06:47:09;101597.97;;;3.93;100.00
5966;BME280;3009;43.224;27.976;2023-02-28T06:49:37;101599.47;;;3.89;100.00
5966;BME280;3009;43.224;27.976;2023-02-28T06:52:05;101585.72;;;3.92;100.00
5966;BME280;3009;43.224;27.976;2023-02-28T06:54:33;101586.75;;;4.03;100.00
5966;BME280;3009;43.224;27.976;2023-02-28T06:57:02;101591.41;;;3.96;100.00
5966;BME280;3009;43.224;27.976;2023-02-28T06:59:32;101589.53;;;3.96;100.00
5966;BME280;3009;43.224;27.976;2023-02-28T07:02:01;101585.16;;;3.78;100.00
5966;BME280;3009;43.224;27.976;2023-02-28T07:04:29;101599.38;;;3.84;100.00
5966;BME280;3009;43.224;27.976;2023-02-28T07:06:58;101595.31;;;3.81;100.00
5966;BME280;3009;43.224;27.976;2023-02-28T07:09:26;101580.66;;;3.79;100.00
5966;BME280;3009;43.224;27.976;2023-02-28T07:11:56;101584.47;;;3.95;100.00
5966;BME280;3009;43.224;27.976;2023-02-28T07:14:24;101598.53;;;3.83;100.00
5966;BME280;3009;43.224;27.976;2023-02-28T07:16:54;101618.03;;;3.89;100.00
5966;BME280;3009;43.224;27.976;2023-02-28T07:19:22;101611.47;;;3.92;100.00
5966;BME280;3009;43.224;27.976;2023-02-28T07:21:50;101609.50;;;3.99;100.00
5966;BME280;3009;43.224;27.976;2023-02-28T07:24:18;101609.28;;;4.00;100.00
5966;BME280;3009;43.224;27.976;2023-02-28T07:26:46;101589.31;;;3.86;100.00
5966;BME280;3009;43.224;27.976;2023-02-28T07:29:15;101595.53;;;4.03;100.00
5966;BME280;3009;43.224;27.976;2023-02-28T07:31:43;101600.38;;;3.83;100.00
5966;BME280;3009;43.224;27.976;2023-02-28T07:34:12;101593.66;;;4.04;100.00
5966;BME280;3009;43.224;27.976;2023-02-28T07:36:40;101604.75;;;3.89;100.00
5966;BME280;3009;43.224;27.976;2023-02-28T07:39:09;101583.31;;;3.90;100.00
5966;BME280;3009;43.224;27.976;2023-02-28T07:41:37;101595.16;;;4.00;100.00
5966;BME280;3009;43.224;27.976;2023-02-28T07:44:10;101603.03;;;3.83;100.00
5966;BME280;3009;43.224;27.976;2023-02-28T07:46:39;101593.56;;;3.99;100.00
5966;BME280;3009;43.224;27.976;2023-02-28T07:49:07;101584.50;;;4.23;100.00
5966;BME280;3009;43.224;27.976;2023-02-28T07:51:36;101586.16;;;4.13;100.00
5966;BME280;3009;43.224;27.976;2023-02-28T07:54:05;101594.06;;;4.36;100.00
5966;BME280;3009;43.224;27.976;2023-02-28T07:56:33;101592.97;;;4.49;100.00
5966;BME280;3009;43.224;27.976;2023-02-28T07:59:01;101596.66;;;4.77;100.00
5966;BME280;3009;43.224;27.976;2023-02-28T08:01:29;101584.50;;;4.81;100.00
5966;BME280;3009;43.224;27.976;2023-02-28T08:03:58;101603.41;;;4.68;100.00
5966;BME280;3009;43.224;27.976;2023-02-28T08:06:28;101608.53;;;4.86;100.00
5966;BME280;3009;43.224;27.976;2023-02-28T08:08:58;101609.66;;;4.61;100.00
5966;BME280;3009;43.224;27.976;2023-02-28T08:11:26;101626.75;;;4.66;100.00
5966;BME280;3009;43.224;27.976;2023-02-28T08:13:54;101632.31;;;4.64;100.00
5966;BME280;3009;43.224;27.976;2023-02-28T08:16:23;101637.97;;;4.56;100.00
5966;BME280;3009;43.224;27.976;2023-02-28T08:18:52;101634.25;;;4.69;100.00
5966;BME280;3009;43.224;27.976;2023-02-28T08:21:21;101634.63;;;4.60;100.00
5966;BME280;3009;43.224;27.976;2023-02-28T08:23:50;101630.19;;;4.95;100.00
5966;BME280;3009;43.224;27.976;2023-02-28T08:26:20;101621.47;;;4.83;100.00
5966;BME280;3009;43.224;27.976;2023-02-28T08:28:49;101624.28;;;5.22;100.00
5966;BME280;3009;43.224;27.976;2023-02-28T08:31:17;101622.50;;;5.27;100.00
5966;BME280;3009;43.224;27.976;2023-02-28T08:33:46;101612.66;;;4.94;100.00
5966;BME280;3009;43.224;27.976;2023-02-28T08:36:15;101616.84;;;5.07;100.00
5966;BME280;3009;43.224;27.976;2023-02-28T08:38:43;101605.97;;;5.08;100.00
5966;BME280;3009;43.224;27.976;2023-02-28T08:41:13;101612.72;;;4.99;100.00
5966;BME280;3009;43.224;27.976;2023-02-28T08:43:42;101604.56;;;4.89;100.00
5966;BME280;3009;43.224;27.976;2023-02-28T08:46:11;101611.03;;;4.93;100.00
5966;BME280;3009;43.224;27.976;2023-02-28T08:48:40;101608.00;;;4.72;100.00
5966;BME280;3009;43.224;27.976;2023-02-28T08:51:09;101615.25;;;5.06;100.00
5966;BME280;3009;43.224;27.976;2023-02-28T08:53:39;101607.75;;;5.20;100.00
5966;BME280;3009;43.224;27.976;2023-02-28T08:56:09;101612.00;;;5.21;100.00
5966;BME280;3009;43.224;27.976;2023-02-28T08:58:37;101603.47;;;5.19;100.00
5966;BME280;3009;43.224;27.976;2023-02-28T09:01:12;101623.28;;;4.94;100.00
5966;BME280;3009;43.224;27.976;2023-02-28T09:03:42;101618.56;;;5.30;100.00
5966;BME280;3009;43.224;27.976;2023-02-28T09:06:10;101626.13;;;5.38;100.00
5966;BME280;3009;43.224;27.976;2023-02-28T09:08:39;101602.34;;;5.14;100.00
5966;BME280;3009;43.224;27.976;2023-02-28T09:11:07;101605.06;;;5.54;100.00
5966;BME280;3009;43.224;27.976;2023-02-28T09:13:36;101607.75;;;5.37;100.00
5966;BME280;3009;43.224;27.976;2023-02-28T09:16:07;101603.94;;;5.49;100.00
5966;BME280;3009;43.224;27.976;2023-02-28T09:18:37;101616.78;;;5.36;100.00
5966;BME280;3009;43.224;27.976;2023-02-28T09:21:06;101605.66;;;5.22;100.00
5966;BME280;3009;43.224;27.976;2023-02-28T09:23:35;101603.31;;;5.25;100.00
5966;BME280;3009;43.224;27.976;2023-02-28T09:26:05;101597.53;;;5.45;100.00
5966;BME280;3009;43.224;27.976;2023-02-28T09:28:33;101607.19;;;5.18;100.00
5966;BME280;3009;43.224;27.976;2023-02-28T09:31:01;101597.19;;;5.25;100.00
5966;BME280;3009;43.224;27.976;2023-02-28T09:33:31;101602.91;;;5.33;100.00
5966;BME280;3009;43.224;27.976;2023-02-28T09:36:03;101599.44;;;4.99;100.00
5966;BME280;3009;43.224;27.976;2023-02-28T09:38:31;101604.19;;;4.97;100.00
5966;BME280;3009;43.224;27.976;2023-02-28T09:41:01;101612.25;;;5.19;100.00
5966;BME280;3009;43.224;27.976;2023-02-28T09:43:37;101618.06;;;5.50;100.00
5966;BME280;3009;43.224;27.976;2023-02-28T09:46:10;101606.69;;;5.21;100.00
5966;BME280;3009;43.224;27.976;2023-02-28T09:48:44;101614.53;;;5.10;100.00
5966;BME280;3009;43.224;27.976;2023-02-28T09:51:28;101625.56;;;5.36;100.00
5966;BME280;3009;43.224;27.976;2023-02-28T09:53:58;101631.50;;;5.09;100.00
5966;BME280;3009;43.224;27.976;2023-02-28T09:56:33;101640.50;;;4.91;100.00
5966;BME280;3009;43.224;27.976;2023-02-28T09:59:11;101639.53;;;4.97;100.00
5966;BME280;3009;43.224;27.976;2023-02-28T10:01:50;101637.97;;;5.13;100.00
5966;BME280;3009;43.224;27.976;2023-02-28T10:04:35;101648.66;;;5.02;100.00
5966;BME280;3009;43.224;27.976;2023-02-28T10:07:18;101640.28;;;5.10;100.00
5966;BME280;3009;43.224;27.976;2023-02-28T10:09:52;101647.06;;;5.18;100.00
5966;BME280;3009;43.224;27.976;2023-02-28T10:12:21;101641.00;;;5.05;100.00
5966;BME280;3009;43.224;27.976;2023-02-28T10:14:51;101643.38;;;5.19;100.00
5966;BME280;3009;43.224;27.976;2023-02-28T10:17:22;101626.53;;;5.30;100.00
5966;BME280;3009;43.224;27.976;2023-02-28T10:19:58;101631.50;;;5.09;100.00
5966;BME280;3009;43.224;27.976;2023-02-28T10:22:33;101620.41;;;5.12;100.00
5966;BME280;3009;43.224;27.976;2023-02-28T10:25:08;101625.41;;;5.09;100.00
5966;BME280;3009;43.224;27.976;2023-02-28T10:27:43;101609.09;;;4.88;100.00
5966;BME280;3009;43.224;27.976;2023-02-28T10:30:13;101616.06;;;4.77;100.00
5966;BME280;3009;43.224;27.976;2023-02-28T10:32:47;101605.53;;;5.00;100.00
5966;BME280;3009;43.224;27.976;2023-02-28T10:35:18;101606.06;;;5.13;100.00
5966;BME280;3009;43.224;27.976;2023-02-28T10:37:50;101596.78;;;5.16;100.00
5966;BME280;3009;43.224;27.976;2023-02-28T10:40:29;101589.47;;;5.23;100.00
5966;BME280;3009;43.224;27.976;2023-02-28T10:42:59;101594.88;;;5.28;100.00
5966;BME280;3009;43.224;27.976;2023-02-28T10:45:28;101586.63;;;4.96;100.00
5966;BME280;3009;43.224;27.976;2023-02-28T10:48:01;101594.53;;;4.91;100.00
5966;BME280;3009;43.224;27.976;2023-02-28T10:50:39;101586.22;;;4.87;100.00
5966;BME280;3009;43.224;27.976;2023-02-28T10:53:31;101589.53;;;4.94;100.00
5966;BME280;3009;43.224;27.976;2023-02-28T10:56:21;101587.66;;;4.95;100.00
5966;BME280;3009;43.224;27.976;2023-02-28T10:58:54;101574.84;;;4.92;100.00
5966;BME280;3009;43.224;27.976;2023-02-28T11:01:27;101583.00;;;5.02;100.00
5966;BME280;3009;43.224;27.976;2023-02-28T11:04:02;101571.00;;;5.00;100.00
5966;BME280;3009;43.224;27.976;2023-02-28T11:06:32;101567.84;;;4.86;100.00
5966;BME280;3009;43.224;27.976;2023-02-28T11:09:04;101563.59;;;4.85;100.00
5966;BME280;3009;43.224;27.976;2023-02-28T11:11:42;101558.59;;;5.22;100.00
5966;BME280;3009;43.224;27.976;2023-02-28T11:14:19;101547.81;;;5.29;100.00
5966;BME280;3009;43.224;27.976;2023-02-28T11:16:49;101555.34;;;5.37;100.00
5966;BME280;3009;43.224;27.976;2023-02-28T11:19:20;101562.34;;;5.43;100.00
5966;BME280;3009;43.224;27.976;2023-02-28T11:21:54;101559.16;;;5.24;100.00
5966;BME280;3009;43.224;27.976;2023-02-28T11:24:26;101562.75;;;5.52;100.00
5966;BME280;3009;43.224;27.976;2023-02-28T11:26:56;101559.91;;;5.76;100.00
5966;BME280;3009;43.224;27.976;2023-02-28T11:29:26;101560.16;;;5.96;100.00
5966;BME280;3009;43.224;27.976;2023-02-28T11:32:12;101554.25;;;5.94;100.00
5966;BME280;3009;43.224;27.976;2023-02-28T11:34:42;101545.81;;;5.58;100.00
5966;BME280;3009;43.224;27.976;2023-02-28T11:37:13;101539.78;;;5.46;100.00
5966;BME280;3009;43.224;27.976;2023-02-28T11:39:44;101548.22;;;5.60;100.00
5966;BME280;3009;43.224;27.976;2023-02-28T11:42:40;101544.81;;;5.42;100.00
5966;BME280;3009;43.224;27.976;2023-02-28T11:45:22;101545.59;;;5.43;100.00
5966;BME280;3009;43.224;27.976;2023-02-28T11:47:59;101543.03;;;5.70;100.00
5966;BME280;3009;43.224;27.976;2023-02-28T11:50:45;101542.94;;;5.82;100.00
5966;BME280;3009;43.224;27.976;2023-02-28T11:53:22;101535.91;;;5.54;100.00
5966;BME280;3009;43.224;27.976;2023-02-28T11:56:03;101535.16;;;5.19;100.00
5966;BME280;3009;43.224;27.976;2023-02-28T11:58:41;101531.66;;;5.36;100.00
5966;BME280;3009;43.224;27.976;2023-02-28T12:01:38;101528.59;;;5.44;100.00
5966;BME280;3009;43.224;27.976;2023-02-28T12:04:17;101517.81;;;5.33;100.00
5966;BME280;3009;43.224;27.976;2023-02-28T12:06:57;101518.41;;;5.19;100.00
5966;BME280;3009;43.224;27.976;2023-02-28T12:09:39;101516.78;;;5.18;100.00
5966;BME280;3009;43.224;27.976;2023-02-28T12:12:23;101502.09;;;5.32;100.00
5966;BME280;3009;43.224;27.976;2023-02-28T12:17:56;101523.19;;;5.39;100.00
5966;BME280;3009;43.224;27.976;2023-02-28T12:20:36;101535.31;;;5.29;100.00
5966;BME280;3009;43.224;27.976;2023-02-28T12:23:25;101532.25;;;5.21;100.00
5966;BME280;3009;43.224;27.976;2023-02-28T12:26:07;101527.41;;;5.18;100.00
5966;BME280;3009;43.224;27.976;2023-02-28T12:28:43;101534.50;;;5.29;100.00
5966;BME280;3009;43.224;27.976;2023-02-28T12:31:18;101523.81;;;4.90;100.00
5966;BME280;3009;43.224;27.976;2023-02-28T12:33:52;101532.19;;;5.15;100.00
5966;BME280;3009;43.224;27.976;2023-02-28T12:36:21;101537.47;;;5.32;100.00
5966;BME280;3009;43.224;27.976;2023-02-28T12:38:53;101541.50;;;5.01;100.00
5966;BME280;3009;43.224;27.976;2023-02-28T12:41:40;101538.69;;;5.25;100.00
5966;BME280;3009;43.224;27.976;2023-02-28T12:44:14;101531.88;;;5.12;100.00
5966;BME280;3009;43.224;27.976;2023-02-28T12:46:48;101539.03;;;5.11;100.00
5966;BME280;3009;43.224;27.976;2023-02-28T12:49:19;101524.53;;;5.02;100.00
5966;BME280;3009;43.224;27.976;2023-02-28T12:51:50;101527.59;;;4.94;100.00
5966;BME280;3009;43.224;27.976;2023-02-28T12:54:24;101521.88;;;4.85;100.00
5966;BME280;3009;43.224;27.976;2023-02-28T12:56:58;101522.69;;;5.20;100.00
5966;BME280;3009;43.224;27.976;2023-02-28T12:59:37;101527.78;;;5.43;100.00
5966;BME280;3009;43.224;27.976;2023-02-28T13:02:30;101525.91;;;5.05;100.00
5966;BME280;3009;43.224;27.976;2023-02-28T13:05:19;101535.06;;;4.80;100.00
5966;BME280;3009;43.224;27.976;2023-02-28T13:08:08;101532.91;;;4.94;100.00
5966;BME280;3009;43.224;27.976;2023-02-28T13:10:43;101531.38;;;4.98;100.00
5966;BME280;3009;43.224;27.976;2023-02-28T13:13:17;101522.59;;;4.97;100.00
5966;BME280;3009;43.224;27.976;2023-02-28T13:16:07;101524.19;;;5.15;100.00
5966;BME280;3009;43.224;27.976;2023-02-28T13:18:38;101527.28;;;5.07;100.00
5966;BME280;3009;43.224;27.976;2023-02-28T13:21:22;101541.44;;;4.96;100.00
5966;BME280;3009;43.224;27.976;2023-02-28T13:24:03;101524.22;;;4.82;100.00
5966;BME280;3009;43.224;27.976;2023-02-28T13:29:42;101546.56;;;4.69;100.00
5966;BME280;3009;43.224;27.976;2023-02-28T13:32:36;101531.59;;;4.79;100.00